Arboga, California
Current Conditions -  °F | °C
As of 9:53 PM on Friday 19 Dec 2014 (Local Time) from KMYV Reporting Station
Overcast Overcast  
Wind Chill: 11°   Ceiling: 1800
Heat Index: 11°   Visibility: 10mi
Dew Point:   Wind: 6mph
Humidity: 89%   Direction: 170°S
Pressure: 30.17"   Gusts: NA
Location:  39.0904°N, 121.552°W
Report Text: KMYV 200553Z AUTO 17005KT 10SM OVC018 11/09 A3017 RMK AO2 SLP221 60001 T01110094 10122 20106 53005
Loading
Personal Weather Stations






























Interactive Weather Map New forecast layout! Learn more

10-Day Weather Forecast

Advertisements
Track Severe Weather on mobile